Whidbey Island Naval Air Station /Ault Field/ Airport
KNUW : rendu visible

Aérodrome :











RETROUVEZ-NOUS SUR...

 
LOGIN :

S'inscrire | Disclaimer

   EN    FR    IT 

 









Légende :    VFR   VFR Marginal   IFR   IFR Intensif   IFR Très Intensif
Visi : 
Plafond : 
>= 8 km
>= 3000ft
5 à 8 km
1000 à 3000 ft
1500m à 5 km
500 à 1000 ft
800 à 1500m
200 à 500 ft
< 800m
< 200 ft
Symboles :   Orages  Brouillard  Fortes neiges  Fortes précipitations  Vent > 20 kt






- Altitude de l'aérodrome : 47 ft


KNUW - Whidbey Island Naval Air Station /Ault Field/

DERNIER METAR :
  • 100856Z 00000KT 9SM BKN005 OVC011 07/04 A3020 RMK AO2 SLP225 T00670039 58012 $

METARs EXPIRÉS :
  • 100756Z 12005KT 9SM OVC005 06/03 A3021 RMK AO2 SLP230 T00610033 400940022 $
  • 100656Z 12005KT 10SM BKN007 OVC016 06/03 A3022 RMK AO2 SLP232 T00610033 $
  • 100638Z 11006KT 10SM BKN006 OVC016 06/03 A3023 RMK AO2 T00610033 $

TAF TAF KNUW
Valide du 10 à 07h jusqu'au 11 à 07h UTC


1007/1107 VRB06KT 4800 BR BKN004 BKN010 OVC030 QNH3014INS
TEMPO 1007/1013 0400 FG VV001
FM101300 13009KT 1600 BR BKN003 OVC010 QNH3012INS
TEMPO 1013/1019 VRB06KT 0400 FG VV001
FM101900 13010KT 8000 BR SCT006 BKN020 BKN120 BKN250 641008 QNH3007INS
BECMG 1100/1102 VRB06KT 8000 -SHRA BR SCT004 BKN020 OVC070 640509 641404 QNH3005INS T03/1015Z T09/1023Z FS30128



MET'MAP, la Météo Aéronautique d'un coup d'oeil ! - Copyright ORBIFLY Décembre 2007 - Disclaimer

ORBIFLY MET'MAP TEAM :

Programmation & Développement : Alexandra Zaïnal
Sur une idée originale de : Baudouin d'Aumeries
Assistance à la programmation : Marc-Olivier Méhu
Soutien technique & logistique : Manuel Goepfert

Contact : metmap@orbifly.com




SOURCES & CREDITS :

   NOAA       Earth
Advisory